Time;durP1;ratioP1;P1;durP2;ratioP2;P2;SDS_P1;SDS_P2;PMS_P1;PMS_P2;Temp;Humidity;BMP_temperature;BMP_pressure;BME280_temperature;BME280_humidity;BME280_pressure;Samples;Min_cycle;Max_cycle;Signal;HPM_P1;HPM_P2
2023/10/14 00:00:41;;;;;;;7.28;5.18;;;;;;;23.86;54.59;99112.06;2076002;28;20572;-67
2023/10/14 00:01:45;;;;;;;5.60;4.18;;;;;;;23.89;54.81;99120.78;2083458;28;20523;-67
2023/10/14 00:02:48;;;;;;;6.20;4.63;;;;;;;23.88;54.67;99114.56;2078661;28;20052;-68
2023/10/14 00:03:50;;;;;;;5.72;4.32;;;;;;;23.88;54.98;99111.03;2076127;28;20519;-68
2023/10/14 00:04:53;;;;;;;7.05;5.10;;;;;;;23.89;55.07;99112.66;2074180;28;20037;-68
2023/10/14 00:05:55;;;;;;;5.40;4.20;;;;;;;23.88;55.02;99111.84;2078431;28;20049;-68
2023/10/14 00:06:57;;;;;;;7.57;4.88;;;;;;;23.87;54.83;99110.16;2074821;28;20095;-68
2023/10/14 00:08:00;;;;;;;6.53;4.75;;;;;;;23.88;54.65;99119.16;2076253;28;20128;-67
2023/10/14 00:09:11;;;;;;;5.03;4.15;;;;;;;23.88;54.82;99116.44;2077903;28;20057;-67
2023/10/14 00:10:14;;;;;;;5.50;4.60;;;;;;;23.88;55.06;99117.25;2080201;28;20122;-68
2023/10/14 00:11:16;;;;;;;4.85;4.30;;;;;;;23.86;54.86;99109.34;2078563;28;20060;-67
2023/10/14 00:12:20;;;;;;;7.00;4.93;;;;;;;23.88;54.56;99113.72;2076901;28;20170;-68
2023/10/14 00:13:22;;;;;;;5.85;4.90;;;;;;;23.86;55.01;99109.34;2076485;28;20053;-68
2023/10/14 00:14:25;;;;;;;6.47;5.13;;;;;;;23.88;54.59;99111.84;2076906;28;20045;-67
2023/10/14 00:15:31;;;;;;;6.90;4.78;;;;;;;23.86;54.72;99109.34;2079198;28;20097;-67
2023/10/14 00:16:36;;;;;;;4.78;3.90;;;;;;;23.86;54.61;99106.63;2082655;28;20426;-67
2023/10/14 00:17:41;;;;;;;8.75;4.88;;;;;;;23.86;54.96;99103.94;2080940;28;20099;-67
2023/10/14 00:18:47;;;;;;;5.43;4.75;;;;;;;23.86;54.94;99101.22;2081192;28;20050;-68
2023/10/14 00:19:50;;;;;;;6.25;4.65;;;;;;;23.86;54.65;99100.41;2081653;28;20045;-68
2023/10/14 00:20:53;;;;;;;4.82;4.10;;;;;;;23.86;54.83;99103.09;2082471;28;20060;-68
2023/10/14 00:21:54;;;;;;;6.22;4.40;;;;;;;23.88;55.06;99098.31;2082368;28;20060;-68
2023/10/14 00:22:56;;;;;;;6.10;4.55;;;;;;;23.86;54.85;99093.09;2081094;28;20411;-67
2023/10/14 00:23:57;;;;;;;5.70;4.38;;;;;;;23.88;54.91;99094.75;2079201;28;20060;-68
2023/10/14 00:24:59;;;;;;;6.75;4.95;;;;;;;23.89;55.10;99091.00;2079719;28;20053;-68
2023/10/14 00:26:01;;;;;;;5.22;4.32;;;;;;;23.87;54.71;99085.78;2080886;28;20068;-68
2023/10/14 00:27:07;;;;;;;9.07;4.38;;;;;;;23.89;54.71;99089.09;2080603;28;20106;-68
2023/10/14 00:28:12;;;;;;;5.03;4.53;;;;;;;23.89;54.64;99091.00;2079419;28;20152;-68
2023/10/14 00:29:19;;;;;;;5.25;3.90;;;;;;;23.88;54.63;99087.47;2081182;28;20904;-68
2023/10/14 00:30:20;;;;;;;6.70;4.43;;;;;;;23.86;55.11;99082.25;2077813;28;20672;-68
2023/10/14 00:31:24;;;;;;;5.68;4.15;;;;;;;23.86;54.92;99076.84;2076633;28;20071;-68
2023/10/14 00:32:24;;;;;;;7.28;3.60;;;;;;;23.86;54.91;99081.44;2082716;28;20079;-67
2023/10/14 00:33:25;;;;;;;9.07;4.45;;;;;;;23.87;54.63;99072.25;2079282;28;20527;-68
2023/10/14 00:34:29;;;;;;;5.72;4.30;;;;;;;23.86;54.82;99071.41;2079594;28;20049;-67
2023/10/14 00:35:31;;;;;;;7.70;4.00;;;;;;;23.86;54.55;99068.72;2080568;28;20129;-68
2023/10/14 00:36:34;;;;;;;5.63;4.05;;;;;;;23.86;54.78;99071.41;2080086;28;20052;-68
2023/10/14 00:37:35;;;;;;;5.28;4.35;;;;;;;23.85;55.00;99064.34;2079982;28;20099;-68
2023/10/14 00:38:37;;;;;;;5.45;4.20;;;;;;;23.87;54.99;99064.13;2080329;28;20057;-68
2023/10/14 00:39:38;;;;;;;8.43;4.28;;;;;;;23.87;54.90;99066.81;2081709;28;20447;-68
2023/10/14 00:40:40;;;;;;;5.35;4.65;;;;;;;23.88;54.51;99067.69;2078081;28;20042;-68
2023/10/14 00:41:45;;;;;;;4.25;3.85;;;;;;;23.87;54.91;99066.81;2083367;28;20118;-68
2023/10/14 00:42:46;;;;;;;8.20;4.65;;;;;;;23.85;54.88;99058.94;2077563;28;20045;-67
2023/10/14 00:43:47;;;;;;;5.57;3.78;;;;;;;23.87;54.69;99061.41;2060882;28;20052;-68
2023/10/14 00:44:48;;;;;;;4.85;4.35;;;;;;;23.88;54.58;99062.25;2079613;28;20048;-68
2023/10/14 00:45:52;;;;;;;7.95;4.40;;;;;;;23.85;54.45;99053.53;2077713;28;20140;-68
2023/10/14 00:46:55;;;;;;;4.43;4.03;;;;;;;23.85;54.99;99052.72;2080728;28;20052;-68
2023/10/14 00:47:59;;;;;;;5.03;3.90;;;;;;;23.86;54.88;99057.06;2081043;28;20046;-68
2023/10/14 00:49:04;;;;;;;7.35;4.75;;;;;;;23.84;55.02;99049.16;2076550;28;20773;-67
2023/10/14 00:50:21;;;;;;;5.40;4.43;;;;;;;23.85;54.88;99053.53;2084930;28;20053;-67
2023/10/14 00:51:26;;;;;;;7.75;4.15;;;;;;;23.84;54.72;99051.84;2078558;28;20052;-68
2023/10/14 00:52:29;;;;;;;6.82;3.97;;;;;;;23.83;55.22;99052.91;2079002;28;20080;-68
2023/10/14 00:53:36;;;;;;;5.78;3.70;;;;;;;23.84;55.17;99054.56;2078310;28;20527;-68
2023/10/14 00:54:58;;;;;;;6.32;3.92;;;;;;;23.84;54.92;99051.03;2080376;28;20049;-68
2023/10/14 00:56:02;;;;;;;;;;;;;;;23.70;55.12;99055.75;2080506;28;20041;-68
2023/10/14 00:57:10;;;;;;;6.18;4.75;;;;;;;23.74;54.93;99051.59;2080481;28;19996;-68
2023/10/14 00:58:20;;;;;;;6.25;4.75;;;;;;;23.78;55.05;99050.06;2083492;28;20132;-67
2023/10/14 00:59:21;;;;;;;6.30;4.03;;;;;;;23.78;55.14;99052.78;2080365;28;20048;-68
2023/10/14 01:00:33;;;;;;;5.47;3.55;;;;;;;23.81;55.00;99059.63;2079676;28;20040;-66
2023/10/14 01:01:49;;;;;;;4.15;3.70;;;;;;;23.82;55.20;99050.44;2082665;28;20056;-68
2023/10/14 01:02:52;;;;;;;5.55;3.90;;;;;;;23.80;54.83;99047.13;2079117;28;20041;-68
2023/10/14 01:03:57;;;;;;;7.50;4.15;;;;;;;23.82;54.72;99053.13;2077600;28;20045;-68
2023/10/14 01:05:07;;;;;;;4.50;3.63;;;;;;;23.82;54.89;99047.72;2080368;28;20052;-67
2023/10/14 01:06:20;;;;;;;5.85;4.15;;;;;;;23.80;55.24;99045.25;2075546;28;20128;-67
2023/10/14 01:07:23;;;;;;;5.53;4.28;;;;;;;23.79;55.18;99042.75;2080910;28;20059;-67
2023/10/14 01:08:25;;;;;;;5.95;4.63;;;;;;;23.80;54.82;99030.88;2077733;28;20531;-68
2023/10/14 01:09:33;;;;;;;5.30;3.85;;;;;;;23.81;55.01;99040.66;2081172;28;20046;-68
2023/10/14 01:10:35;;;;;;;7.78;5.05;;;;;;;23.80;54.99;99039.84;2078259;28;20060;-68
2023/10/14 01:11:36;;;;;;;5.90;4.32;;;;;;;23.80;54.80;99041.72;2078616;28;20048;-68
2023/10/14 01:12:44;;;;;;;4.75;3.97;;;;;;;23.81;55.12;99041.47;2081850;28;20053;-68
2023/10/14 01:13:45;;;;;;;4.80;3.60;;;;;;;23.81;54.94;99036.06;2079903;28;20048;-67
2023/10/14 01:14:52;;;;;;;7.47;4.03;;;;;;;23.81;54.86;99040.66;2078505;28;20076;-67
2023/10/14 01:16:01;;;;;;;4.53;4.13;;;;;;;23.80;54.98;99033.59;2078524;28;20049;-67
2023/10/14 01:17:06;;;;;;;5.65;3.90;;;;;;;23.79;54.86;99040.91;2065911;28;20053;-67
2023/10/14 01:18:07;;;;;;;5.22;4.75;;;;;;;23.79;55.00;99035.47;2075778;28;20232;-68
2023/10/14 01:19:11;;;;;;;7.00;4.40;;;;;;;23.80;55.04;99039.00;2078948;28;20061;-68
2023/10/14 01:20:25;;;;;;;5.50;3.80;;;;;;;23.80;54.86;99039.84;2077999;28;20049;-68
2023/10/14 01:21:28;;;;;;;4.00;3.60;;;;;;;23.78;54.83;99033.81;2076458;28;20053;-68
2023/10/14 01:22:30;;;;;;;5.55;3.90;;;;;;;23.78;55.07;99036.53;2078188;28;20095;-68
2023/10/14 01:23:35;;;;;;;4.03;3.60;;;;;;;23.79;55.06;99031.91;2076621;28;20061;-68
2023/10/14 01:24:41;;;;;;;6.03;4.00;;;;;;;23.79;54.96;99034.63;2078707;28;20049;-67
2023/10/14 01:25:47;;;;;;;5.63;4.60;;;;;;;23.78;54.89;99025.69;2079008;28;20056;-68
2023/10/14 01:27:00;;;;;;;4.97;3.58;;;;;;;23.78;54.96;99036.53;2080231;28;20471;-68
2023/10/14 01:28:11;;;;;;;6.10;4.25;;;;;;;23.76;54.88;99027.78;2069568;28;20044;-68
2023/10/14 01:29:14;;;;;;;5.95;4.07;;;;;;;23.75;55.11;99030.75;2076183;28;20064;-68
2023/10/14 01:30:19;;;;;;;5.57;3.90;;;;;;;23.76;55.01;99027.78;2078560;28;20042;-67
2023/10/14 01:32:05;;;;;;;4.70;3.33;;;;;;;23.74;54.88;99027.22;2079854;28;20061;-67
2023/10/14 01:33:12;;;;;;;5.63;3.88;;;;;;;23.72;54.88;99026.59;2065821;28;20060;-67
2023/10/14 01:34:24;;;;;;;4.43;4.00;;;;;;;23.74;55.10;99024.50;2080306;28;20111;-68
2023/10/14 01:35:31;;;;;;;6.57;4.18;;;;;;;23.76;54.92;99033.19;2075349;28;20064;-68
2023/10/14 01:36:37;;;;;;;3.40;3.00;;;;;;;23.77;54.99;99029.47;2079622;28;20686;-68
2023/10/14 01:37:40;;;;;;;7.07;3.60;;;;;;;23.77;55.09;99031.34;2077301;28;20046;-67
2023/10/14 01:38:50;;;;;;;6.97;4.80;;;;;;;23.77;54.93;99026.75;2081229;28;20160;-68
2023/10/14 01:39:56;;;;;;;4.47;3.87;;;;;;;23.76;55.14;99022.38;2084288;28;20044;-68
2023/10/14 01:41:03;;;;;;;6.25;3.75;;;;;;;23.75;54.80;99019.91;2076868;28;20299;-68
2023/10/14 01:42:08;;;;;;;4.68;3.70;;;;;;;23.75;54.95;99026.13;2077730;28;20523;-68
2023/10/14 01:43:10;;;;;;;3.97;3.38;;;;;;;23.75;55.09;99015.31;2081375;28;20049;-67
2023/10/14 01:44:11;;;;;;;5.57;3.80;;;;;;;23.76;55.17;99019.66;2079245;28;20060;-68
2023/10/14 01:45:13;;;;;;;5.55;4.18;;;;;;;23.77;54.92;99017.81;2077585;28;20045;-68
2023/10/14 01:46:18;;;;;;;4.25;3.80;;;;;;;23.77;54.92;99018.63;2083208;28;20071;-68
2023/10/14 01:47:21;;;;;;;4.72;3.40;;;;;;;23.76;55.15;99013.41;2076975;28;20048;-67
2023/10/14 01:48:25;;;;;;;6.22;3.90;;;;;;;23.77;55.19;99015.91;2081180;28;20135;-68
2023/10/14 01:49:27;;;;;;;5.15;3.85;;;;;;;23.76;55.25;99018.84;2078172;28;20072;-68
2023/10/14 01:50:28;;;;;;;4.53;3.95;;;;;;;23.78;54.99;99016.72;2078135;28;20082;-68
2023/10/14 01:51:33;;;;;;;5.75;4.13;;;;;;;23.77;54.85;99012.38;2077660;28;20106;-68
2023/10/14 01:52:34;;;;;;;5.72;3.65;;;;;;;23.77;55.17;99005.09;2074305;28;20049;-68
2023/10/14 01:53:38;;;;;;;4.03;3.63;;;;;;;23.77;54.97;99005.09;2077428;28;20087;-68
2023/10/14 01:54:39;;;;;;;4.05;3.65;;;;;;;23.78;54.76;99003.19;2081730;28;20128;-68
2023/10/14 01:55:41;;;;;;;5.47;4.53;;;;;;;23.77;55.32;99006.97;2080101;28;20485;-67
2023/10/14 01:56:43;;;;;;;5.70;4.00;;;;;;;23.77;54.84;99005.09;2074898;28;20183;-68
2023/10/14 01:57:46;;;;;;;6.25;3.83;;;;;;;23.77;54.95;99001.56;2078585;28;20128;-68
2023/10/14 01:58:57;;;;;;;5.72;4.18;;;;;;;23.77;54.78;99002.38;2075476;28;20072;-68
2023/10/14 01:59:58;;;;;;;4.28;3.85;;;;;;;23.75;54.85;98998.25;2078772;28;20594;-67
2023/10/14 02:01:07;;;;;;;5.47;4.15;;;;;;;23.75;55.18;98999.06;2073600;28;20051;-68
2023/10/14 02:02:09;;;;;;;6.45;3.95;;;;;;;23.74;54.88;98994.72;2069369;28;20564;-68
2023/10/14 02:03:10;;;;;;;5.35;3.70;;;;;;;23.75;55.04;99001.75;2076673;28;20155;-66
2023/10/14 02:04:15;;;;;;;4.32;3.70;;;;;;;23.76;55.00;98997.16;2078323;28;20049;-67
2023/10/14 02:05:15;;;;;;;4.95;3.85;;;;;;;23.75;55.11;98990.13;2076459;28;20163;-68
2023/10/14 02:06:18;;;;;;;4.28;3.40;;;;;;;23.76;54.99;98989.88;2076615;28;20049;-68
2023/10/14 02:07:21;;;;;;;5.97;3.67;;;;;;;23.77;54.69;99001.56;2078115;28;20058;-67
2023/10/14 02:08:21;;;;;;;5.28;3.75;;;;;;;23.77;54.75;98991.53;2076644;28;20041;-67
2023/10/14 02:09:29;;;;;;;4.38;3.97;;;;;;;23.78;54.67;98992.34;2079313;28;20077;-66
2023/10/14 02:10:35;;;;;;;4.72;3.80;;;;;;;23.76;54.92;98989.88;2074375;28;21498;-67
2023/10/14 02:11:38;;;;;;;5.63;4.07;;;;;;;23.75;54.90;98984.69;2077098;28;20073;-68
2023/10/14 02:12:42;;;;;;;5.63;4.45;;;;;;;23.75;54.83;98984.69;2077084;28;20054;-68
2023/10/14 02:13:44;;;;;;;6.20;4.28;;;;;;;23.74;54.90;98986.59;2077044;28;20054;-68
2023/10/14 02:14:56;;;;;;;3.50;3.03;;;;;;;23.75;54.98;98987.41;2078231;28;20045;-67
2023/10/14 02:16:07;;;;;;;5.63;4.28;;;;;;;23.74;54.99;98988.47;2075813;28;20045;-68
2023/10/14 02:17:10;;;;;;;7.55;3.90;;;;;;;23.70;55.26;98985.34;2077064;28;20052;-68
2023/10/14 02:18:12;;;;;;;4.50;4.10;;;;;;;23.72;54.85;98985.97;2079382;28;20401;-68
2023/10/14 02:19:17;;;;;;;5.47;4.97;;;;;;;23.73;54.72;98982.19;2078609;28;20132;-68
2023/10/14 02:20:27;;;;;;;4.95;3.38;;;;;;;23.72;54.73;98980.56;2077599;28;20487;-68
2023/10/14 02:21:34;;;;;;;3.65;3.35;;;;;;;23.71;54.94;98981.63;2074229;28;20056;-68
2023/10/14 02:22:38;;;;;;;6.63;3.50;;;;;;;23.72;54.83;98977.84;2075126;28;20080;-67
2023/10/14 02:23:47;;;;;;;6.50;3.88;;;;;;;23.74;54.84;98970.34;2077090;28;20050;-68
2023/10/14 02:24:55;;;;;;;5.82;3.78;;;;;;;23.72;55.24;98968.91;2078540;28;20059;-69
2023/10/14 02:25:57;;;;;;;4.82;3.65;;;;;;;23.72;54.98;98967.03;2074938;28;20048;-68
2023/10/14 02:27:06;;;;;;;5.43;3.78;;;;;;;23.73;54.87;98962.44;2078247;28;20045;-68
2023/10/14 02:28:07;;;;;;;4.72;3.58;;;;;;;23.71;54.91;98959.97;2071536;28;20137;-68
2023/10/14 02:29:15;;;;;;;4.55;3.83;;;;;;;23.71;55.22;98970.78;2073868;28;21242;-68
2023/10/14 02:30:16;;;;;;;4.55;3.70;;;;;;;23.71;54.83;98965.38;2075165;28;20140;-68
2023/10/14 02:31:25;;;;;;;3.70;3.35;;;;;;;23.72;54.93;98964.31;2078176;28;20099;-67
2023/10/14 02:32:27;;;;;;;5.00;3.40;;;;;;;23.71;54.97;98962.66;2079909;28;20094;-67
2023/10/14 02:33:28;;;;;;;5.47;3.13;;;;;;;23.72;54.92;98960.78;2074830;28;20061;-68
2023/10/14 02:34:30;;;;;;;4.22;3.35;;;;;;;23.72;55.26;98964.31;2075639;28;20056;-68
2023/10/14 02:35:33;;;;;;;3.53;3.05;;;;;;;23.71;54.98;98954.53;2076331;28;20053;-68
2023/10/14 02:36:35;;;;;;;5.38;3.35;;;;;;;23.71;54.92;98964.53;2071009;28;20053;-67
2023/10/14 02:37:37;;;;;;;4.97;4.07;;;;;;;23.72;54.98;98958.91;2072939;28;20049;-68
2023/10/14 02:38:38;;;;;;;5.43;3.95;;;;;;;23.72;54.82;98960.78;2079050;28;20106;-68
2023/10/14 02:39:43;;;;;;;6.32;4.05;;;;;;;23.71;54.97;98951.84;2072669;28;20053;-68
2023/10/14 02:40:49;;;;;;;4.82;3.83;;;;;;;23.69;55.12;98943.06;2077144;28;20485;-68
2023/10/14 02:41:58;;;;;;;5.10;4.05;;;;;;;23.69;54.92;98943.06;2077874;28;20118;-67
2023/10/14 02:43:01;;;;;;;3.95;3.47;;;;;;;23.68;54.92;98941.44;2077782;28;20057;-66
2023/10/14 02:44:18;;;;;;;4.95;3.55;;;;;;;23.69;54.87;98940.38;2065588;28;20049;-68
2023/10/14 02:45:20;;;;;;;4.28;3.60;;;;;;;23.68;55.13;98938.72;2076674;28;20053;-68
2023/10/14 02:46:21;;;;;;;6.97;3.42;;;;;;;23.70;55.00;98941.19;2074999;28;20053;-68
2023/10/14 02:47:26;;;;;;;5.25;3.65;;;;;;;23.69;54.83;98937.66;2074328;28;20831;-67
2023/10/14 02:48:49;;;;;;;5.10;3.17;;;;;;;23.69;54.84;98932.25;2078745;28;20522;-68
2023/10/14 02:49:55;;;;;;;4.80;3.75;;;;;;;23.68;54.83;98933.31;2074879;28;20048;-68
2023/10/14 02:50:56;;;;;;;5.10;3.67;;;;;;;23.67;54.85;98942.47;2074279;28;20064;-68
2023/10/14 02:52:01;;;;;;;6.88;3.83;;;;;;;23.68;54.97;98938.72;2077500;28;20056;-68
2023/10/14 02:53:06;;;;;;;5.93;3.45;;;;;;;23.69;54.82;98929.53;2078134;28;20415;-67
2023/10/14 02:54:15;;;;;;;4.65;3.88;;;;;;;23.71;54.98;98938.28;2069728;28;20114;-68
2023/10/14 02:55:21;;;;;;;4.55;3.83;;;;;;;23.69;54.82;98931.41;2077179;28;20129;-68
2023/10/14 02:56:43;;;;;;;4.15;3.30;;;;;;;23.69;55.04;98932.25;2081539;28;20041;-67
2023/10/14 02:57:46;;;;;;;5.80;3.50;;;;;;;23.66;54.79;98930.00;2071426;28;20057;-68
2023/10/14 02:58:47;;;;;;;4.80;3.70;;;;;;;23.68;54.89;98932.47;2079208;28;20143;-68
2023/10/14 02:59:49;;;;;;;4.07;3.22;;;;;;;23.69;55.15;98934.94;2079665;28;20046;-68
2023/10/14 03:00:50;;;;;;;3.45;3.03;;;;;;;23.67;55.15;98931.63;2080326;28;20053;-68
2023/10/14 03:01:52;;;;;;;3.60;3.25;;;;;;;23.68;54.77;98925.19;2080957;28;20702;-68
2023/10/14 03:03:03;;;;;;;6.68;4.22;;;;;;;23.68;54.96;98930.59;2079569;28;20241;-67
2023/10/14 03:04:07;;;;;;;3.40;3.05;;;;;;;23.68;54.96;98922.47;2072494;28;20088;-67
2023/10/14 03:05:08;;;;;;;5.13;3.55;;;;;;;23.67;55.15;98917.28;2072021;28;20055;-68
2023/10/14 03:06:14;;;;;;;5.85;3.67;;;;;;;23.69;54.99;98926.81;2084453;28;20053;-67
2023/10/14 03:07:23;;;;;;;3.45;3.15;;;;;;;23.66;54.67;98924.59;2076575;28;20405;-68
2023/10/14 03:08:25;;;;;;;6.00;3.45;;;;;;;23.67;54.91;98911.88;2075151;28;21395;-67
2023/10/14 03:09:33;;;;;;;5.60;3.90;;;;;;;23.67;54.99;98918.09;2082878;28;20060;-68
2023/10/14 03:10:39;;;;;;;7.45;3.67;;;;;;;23.66;55.00;98916.47;2074360;28;20061;-68
2023/10/14 03:11:42;;;;;;;3.53;3.22;;;;;;;23.67;54.78;98920.00;2079321;28;20057;-68
2023/10/14 03:12:48;;;;;;;4.10;3.50;;;;;;;23.67;54.88;98907.28;2077778;28;20350;-68
2023/10/14 03:13:49;;;;;;;5.78;3.20;;;;;;;23.66;55.08;98918.34;2078935;28;20053;-68
2023/10/14 03:14:52;;;;;;;4.72;3.40;;;;;;;23.68;54.92;98919.78;2079315;28;21644;-68
2023/10/14 03:15:53;;;;;;;3.38;3.08;;;;;;;23.67;54.82;98920.81;2078861;28;20050;-68
2023/10/14 03:16:55;;;;;;;4.88;3.45;;;;;;;23.68;55.00;98908.09;2078782;28;20045;-68
2023/10/14 03:17:58;;;;;;;5.00;3.33;;;;;;;23.68;55.01;98921.63;2081699;28;20132;-68
2023/10/14 03:19:00;;;;;;;3.15;2.78;;;;;;;23.69;54.93;98904.34;2079447;28;20054;-68
2023/10/14 03:20:09;;;;;;;5.38;3.95;;;;;;;23.69;54.61;98909.75;2067641;28;21757;-68
2023/10/14 03:21:22;;;;;;;3.85;3.20;;;;;;;23.67;55.04;98907.28;2079341;28;20555;-68
2023/10/14 03:22:23;;;;;;;3.70;3.38;;;;;;;23.65;54.94;98906.66;2080404;28;20076;-68
2023/10/14 03:23:26;;;;;;;4.57;3.47;;;;;;;23.64;54.99;98900.44;2075156;28;20103;-68
2023/10/14 03:24:30;;;;;;;3.92;3.53;;;;;;;23.66;54.87;98896.69;2070231;28;20076;-67
2023/10/14 03:25:35;;;;;;;4.57;3.55;;;;;;;23.66;55.01;98896.69;2075890;28;20056;-68
2023/10/14 03:26:37;;;;;;;4.55;3.75;;;;;;;23.65;54.87;98898.53;2081183;28;20131;-68
2023/10/14 03:27:40;;;;;;;3.90;3.03;;;;;;;23.66;55.17;98897.50;2074637;28;20053;-68
2023/10/14 03:28:44;;;;;;;4.13;3.40;;;;;;;23.66;54.94;98897.50;2074713;28;20045;-68
2023/10/14 03:29:54;;;;;;;3.63;3.25;;;;;;;23.65;54.91;98890.41;2072213;28;20049;-68
2023/10/14 03:30:55;;;;;;;4.15;3.13;;;;;;;23.64;54.98;98903.13;2076538;28;20044;-68
2023/10/14 03:31:57;;;;;;;5.03;3.35;;;;;;;23.64;55.03;98895.00;2080056;28;20091;-68
2023/10/14 03:32:58;;;;;;;4.28;3.83;;;;;;;23.65;54.83;98890.41;2079103;28;20060;-68
2023/10/14 03:34:00;;;;;;;5.22;3.45;;;;;;;23.66;54.59;98883.16;2077608;28;20055;-68
2023/10/14 03:35:10;;;;;;;5.15;3.55;;;;;;;23.66;55.00;98896.69;2075174;28;20052;-67
2023/10/14 03:36:16;;;;;;;4.70;3.05;;;;;;;23.64;54.91;98894.19;2073365;28;20049;-68
2023/10/14 03:37:19;;;;;;;4.90;3.20;;;;;;;23.63;54.69;98896.06;2075805;28;20057;-67
2023/10/14 03:38:33;;;;;;;3.92;2.97;;;;;;;23.63;55.04;98896.06;2079640;28;20049;-68
2023/10/14 03:39:45;;;;;;;3.60;3.08;;;;;;;23.62;54.97;98894.44;2076565;28;20061;-68
2023/10/14 03:41:02;;;;;;;4.03;3.50;;;;;;;23.62;54.97;98899.00;2077419;28;20077;-68
2023/10/14 03:42:10;;;;;;;4.55;3.22;;;;;;;23.60;55.22;98901.97;2074647;28;20049;-68
2023/10/14 03:43:15;;;;;;;4.70;3.55;;;;;;;23.63;54.86;98898.78;2076033;28;20057;-68
2023/10/14 03:44:21;;;;;;;4.13;3.72;;;;;;;23.63;54.75;98896.06;2078565;28;20049;-68
2023/10/14 03:45:22;;;;;;;5.20;3.70;;;;;;;23.63;54.82;98892.56;2068373;28;20061;-68
2023/10/14 03:46:29;;;;;;;4.40;3.58;;;;;;;23.63;54.69;98892.56;2075784;28;20041;-67
2023/10/14 03:47:34;;;;;;;3.95;3.15;;;;;;;23.63;54.71;98887.97;2075551;28;20165;-68
2023/10/14 03:48:45;;;;;;;5.03;3.65;;;;;;;23.64;54.80;98894.19;2074749;28;20049;-68
2023/10/14 03:49:55;;;;;;;4.28;3.47;;;;;;;23.63;54.61;98895.25;2078300;28;20052;-67
2023/10/14 03:51:03;;;;;;;4.30;3.08;;;;;;;23.61;55.02;98897.38;2077011;28;20143;-68
2023/10/14 03:52:03;;;;;;;4.60;2.88;;;;;;;23.61;54.82;98894.66;2076242;28;20100;-68
2023/10/14 03:53:05;;;;;;;4.57;3.25;;;;;;;23.63;54.85;98895.25;2079028;28;20083;-68
2023/10/14 03:54:08;;;;;;;5.07;3.20;;;;;;;23.61;55.00;98890.06;2075814;28;20515;-68
2023/10/14 03:55:12;;;;;;;4.70;3.17;;;;;;;23.63;54.95;98887.13;2075375;28;20049;-68
2023/10/14 03:56:14;;;;;;;3.92;3.28;;;;;;;23.63;55.06;98895.25;2072578;28;20518;-67
2023/10/14 03:57:17;;;;;;;8.52;3.90;;;;;;;23.64;54.71;98888.78;2077199;28;20444;-68
2023/10/14 03:58:20;;;;;;;5.10;3.42;;;;;;;23.63;54.86;98892.56;2079330;28;20124;-68
2023/10/14 03:59:22;;;;;;;3.95;3.00;;;;;;;23.63;54.69;98893.38;2073537;28;20522;-68
2023/10/14 04:00:36;;;;;;;5.13;3.05;;;;;;;23.63;54.86;98895.25;2074140;28;20041;-68
2023/10/14 04:01:43;;;;;;;2.97;2.67;;;;;;;23.62;54.71;98899.00;2075779;28;20045;-67
2023/10/14 04:02:45;;;;;;;4.25;2.50;;;;;;;23.61;54.93;98909.00;2075727;28;20045;-67
2023/10/14 04:03:51;;;;;;;4.40;3.13;;;;;;;23.60;54.99;98909.25;2074690;28;20516;-68
2023/10/14 04:05:01;;;;;;;3.35;2.90;;;;;;;23.60;54.97;98912.78;2079589;28;20049;-68
2023/10/14 04:06:07;;;;;;;3.85;3.22;;;;;;;23.60;54.32;98909.25;2076925;28;21610;-67
2023/10/14 04:07:15;;;;;;;4.47;3.00;;;;;;;23.56;54.57;98902.63;2075650;28;20844;-68
2023/10/14 04:08:16;;;;;;;3.63;3.00;;;;;;;23.56;54.62;98902.63;2079217;28;20049;-68
2023/10/14 04:09:24;;;;;;;3.58;3.25;;;;;;;23.57;54.82;98907.84;2079038;28;20445;-68
2023/10/14 04:10:26;;;;;;;3.67;3.25;;;;;;;23.57;54.78;98909.72;2076922;28;20049;-68
2023/10/14 04:11:28;;;;;;;3.03;2.75;;;;;;;23.58;54.69;98900.53;2079064;28;20053;-67
2023/10/14 04:12:36;;;;;;;3.30;3.00;;;;;;;23.59;54.59;98904.88;2079989;28;20787;-67
2023/10/14 04:13:40;;;;;;;4.60;3.17;;;;;;;23.59;54.63;98896.75;2076556;28;20053;-67
2023/10/14 04:14:42;;;;;;;4.07;2.88;;;;;;;23.59;54.48;98899.47;2082446;28;20427;-68
2023/10/14 04:15:48;;;;;;;3.92;2.95;;;;;;;23.58;54.86;98908.66;2079609;28;20056;-68
2023/10/14 04:17:09;;;;;;;5.57;3.08;;;;;;;23.59;54.45;98899.47;2081889;28;20052;-68
2023/10/14 04:18:12;;;;;;;4.85;2.53;;;;;;;23.56;54.78;98902.63;2078044;28;20135;-67
2023/10/14 04:19:22;;;;;;;3.63;2.85;;;;;;;23.56;54.63;98913.47;2078321;28;20210;-68
2023/10/14 04:20:29;;;;;;;6.45;3.55;;;;;;;23.54;54.54;98904.75;2074395;28;20052;-68
2023/10/14 04:21:36;;;;;;;3.50;3.20;;;;;;;23.53;54.50;98897.69;2076041;28;20943;-68
2023/10/14 04:22:38;;;;;;;5.40;3.38;;;;;;;23.53;54.61;98900.41;2078146;28;20052;-68
2023/10/14 04:24:12;;;;;;;6.78;3.30;;;;;;;23.53;54.69;98903.91;2072883;28;20053;-68
2023/10/14 04:25:18;;;;;;;4.13;2.88;;;;;;;23.50;54.68;98900.84;2080072;28;20084;-67
2023/10/14 04:26:22;;;;;;;5.70;3.60;;;;;;;23.50;54.68;98898.97;2078039;28;20458;-67
2023/10/14 04:27:33;;;;;;;5.45;3.40;;;;;;;23.54;54.63;98902.03;2079436;28;20057;-68
2023/10/14 04:28:39;;;;;;;;;;;;;;;23.43;55.09;98895.53;2077462;28;20056;-67
2023/10/14 04:29:51;;;;;;;3.75;3.13;;;;;;;23.47;54.94;98893.19;2079180;28;19928;-68
2023/10/14 04:30:52;;;;;;;3.33;2.97;;;;;;;23.50;54.73;98890.03;2074024;28;20151;-67
2023/10/14 04:31:56;;;;;;;4.20;3.40;;;;;;;23.51;54.87;98900.59;2075136;28;20173;-68
2023/10/14 04:33:05;;;;;;;7.00;2.97;;;;;;;23.53;54.70;98894.97;2074515;28;20056;-68
2023/10/14 04:34:22;;;;;;;3.67;3.28;;;;;;;23.51;54.56;98897.06;2077616;28;20049;-68
2023/10/14 04:35:24;;;;;;;5.47;2.78;;;;;;;23.50;54.45;98895.44;2076162;28;20044;-68
2023/10/14 04:36:37;;;;;;;4.30;3.30;;;;;;;23.52;54.62;98898.75;2074276;28;20055;-68
2023/10/14 04:37:50;;;;;;;4.95;2.60;;;;;;;23.51;54.42;98897.06;2076102;28;20061;-68
2023/10/14 04:39:05;;;;;;;6.60;3.35;;;;;;;23.51;54.41;98897.91;2074650;28;20053;-68
2023/10/14 04:40:16;;;;;;;2.92;2.55;;;;;;;23.50;54.66;98893.56;2077597;28;20061;-67
2023/10/14 04:41:24;;;;;;;;;;;;;;;23.40;54.91;98898.69;2075289;28;24930;-67
2023/10/14 04:42:35;;;;;;;3.78;2.90;;;;;;;23.41;54.74;98890.34;2074938;28;19965;-67
2023/10/14 04:44:00;;;;;;;3.08;2.70;;;;;;;23.46;54.97;98896.94;2081436;28;20084;-67
2023/10/14 04:45:04;;;;;;;7.55;3.33;;;;;;;23.49;54.47;98888.38;2077326;28;20084;-67
2023/10/14 04:46:13;;;;;;;4.55;3.10;;;;;;;23.49;54.78;98891.09;2071246;28;20057;-68
2023/10/14 04:47:19;;;;;;;7.63;4.13;;;;;;;23.49;54.65;98885.69;2073320;28;20060;-68
2023/10/14 04:48:28;;;;;;;5.03;3.67;;;;;;;23.49;54.56;98889.19;2075998;28;20064;-67
2023/10/14 04:50:56;;;;;;;7.40;3.30;;;;;;;23.46;54.88;98886.97;2072056;28;20049;-68
2023/10/14 04:51:58;;;;;;;2.67;2.47;;;;;;;23.47;54.75;98885.88;2071774;28;20068;-68
2023/10/14 04:53:00;;;;;;;4.15;2.60;;;;;;;23.48;54.43;98873.19;2075356;28;20076;-65
2023/10/14 04:54:01;;;;;;;5.60;3.30;;;;;;;23.48;54.58;98873.19;2076846;28;20045;-68
2023/10/14 04:55:08;;;;;;;3.58;2.70;;;;;;;23.51;54.50;98864.59;2078397;28;20064;-67
2023/10/14 04:56:11;;;;;;;6.22;3.10;;;;;;;23.49;54.26;98872.97;2074276;28;20045;-68
2023/10/14 04:57:20;;;;;;;3.63;3.28;;;;;;;23.50;54.66;98871.06;2078182;28;20147;-68
2023/10/14 04:58:25;;;;;;;4.60;3.20;;;;;;;23.49;54.37;98874.84;2073697;28;20590;-68
2023/10/14 04:59:28;;;;;;;3.40;3.10;;;;;;;23.51;54.75;98867.28;2074412;28;20100;-68
2023/10/14 05:00:38;;;;;;;3.42;2.72;;;;;;;23.49;54.61;98870.25;2072053;28;20139;-68
2023/10/14 05:01:42;;;;;;;5.55;2.90;;;;;;;23.49;54.35;98877.56;2073176;28;20052;-68
2023/10/14 05:02:45;;;;;;;3.22;2.92;;;;;;;23.50;54.58;98871.91;2075752;28;20618;-67
2023/10/14 05:03:46;;;;;;;5.07;3.20;;;;;;;23.50;54.48;98874.59;2072841;28;20053;-68
2023/10/14 05:04:49;;;;;;;5.28;3.30;;;;;;;23.50;54.45;98874.59;2076912;28;20045;-67
2023/10/14 05:05:55;;;;;;;4.00;3.10;;;;;;;23.51;54.28;98865.41;2075064;28;20049;-67
2023/10/14 05:07:03;;;;;;;3.97;3.35;;;;;;;23.50;54.53;98871.06;2075573;28;20139;-67
2023/10/14 05:08:06;;;;;;;4.10;2.90;;;;;;;23.49;54.44;98866.72;2076736;28;20049;-68
2023/10/14 05:09:21;;;;;;;4.35;2.78;;;;;;;23.50;54.33;98862.94;2075230;28;20049;-68
2023/10/14 05:10:25;;;;;;;4.18;3.13;;;;;;;23.48;54.58;98856.94;2078208;28;20053;-68